This is the latest recevied weather packets stored in our database for station/object CA3EVY-3. If no packets are shown the sender has not sent any weather packets the latest 10 day(s).
| Time | Temp. | Humidity | Pressure | Rain* | Wind** | Luminosity | Snow |
|---|---|---|---|---|---|---|---|
| 1778090404 | 14.44° C | 68% | 919.6 hPa | - | - | - | - |
| 1778089504 | 14.44° C | 68% | 919.6 hPa | - | - | - | - |
| 1778088604 | 14.44° C | 66% | 919.6 hPa | - | - | - | - |
| 1778087703 | 14.44° C | 66% | 919.7 hPa | - | - | - | - |
| 1778086805 | 15° C | 62% | 919.7 hPa | - | - | - | - |
| 1778085904 | 15° C | 62% | 919.1 hPa | - | - | - | - |
| 1778085003 | 15.56° C | 56% | 919.2 hPa | - | - | - | - |
| 1778084103 | 16.11° C | 56% | 918.9 hPa | - | - | - | - |
| 1778083204 | 16.67° C | 57% | 918.6 hPa | - | - | - | - |
| 1778082304 | 16.67° C | 57% | 918.3 hPa | - | - | - | - |
| 1778081404 | 16.11° C | 58% | 918.4 hPa | - | - | - | - |
| 1778080506 | 16.11° C | 58% | 918.4 hPa | - | - | - | - |
| 1778079604 | 15.56° C | 60% | 918.2 hPa | - | - | - | - |
| 1778078704 | 15.56° C | 60% | 918.1 hPa | - | - | - | - |
| 1778077804 | 15° C | 61% | 918 hPa | - | - | - | - |
| 1778076904 | 15° C | 61% | 917.8 hPa | - | - | - | - |
| 1778076004 | 14.44° C | 64% | 918.1 hPa | - | - | - | - |
| 1778075104 | 13.89° C | 64% | 918.4 hPa | - | - | - | - |
| 1778074203 | 13.33° C | 65% | 918.4 hPa | - | - | - | - |
| 1778073304 | 13.33° C | 65% | 918.6 hPa | - | - | - | - |
| 1778072404 | 13.33° C | 65% | 918.7 hPa | - | - | - | - |
| 1778071505 | 13.33° C | 65% | 918.7 hPa | - | - | - | - |
| 1778070603 | 12.78° C | 64% | 918.6 hPa | - | - | - | - |
| 1778069704 | 12.78° C | 64% | 918.7 hPa | - | - | - | - |
| 1778068804 | 12.78° C | 64% | 918.6 hPa | - | - | - | - |
* Rain since midnight (hover to see other rain measurements)
** Current wind speed in m/s (hover to see current wind gust speed)